createdAt,value
2023-02-14T00:00:35.000Z,272.27
2023-02-14T00:01:59.000Z,272.21
2023-02-14T00:04:03.000Z,272.21
2023-02-14T00:05:27.000Z,272.21
2023-02-14T00:07:31.000Z,272.21
2023-02-14T00:08:56.000Z,272.27
2023-02-14T00:10:59.000Z,272.27
2023-02-14T00:12:23.000Z,272.21
2023-02-14T00:14:27.000Z,272.09
2023-02-14T00:15:51.000Z,272.15
2023-02-14T00:17:55.000Z,272.21
2023-02-14T00:19:20.000Z,272.21
2023-02-14T00:21:23.000Z,272.15
2023-02-14T00:22:48.000Z,272.15
2023-02-14T00:24:51.000Z,272.09
2023-02-14T00:27:34.000Z,272.09
2023-02-14T00:28:59.000Z,272.15
2023-02-14T00:31:02.000Z,272.15
2023-02-14T00:32:27.000Z,272.15
2023-02-14T00:34:30.000Z,272.15
2023-02-14T00:35:54.000Z,272.15
2023-02-14T00:37:58.000Z,272.15
2023-02-14T00:39:22.000Z,272.02
2023-02-14T00:41:26.000Z,272.09
2023-02-14T00:42:50.000Z,272.02
2023-02-14T00:44:54.000Z,272.09
2023-02-14T00:46:18.000Z,272.02
2023-02-14T00:48:22.000Z,271.96
2023-02-14T00:49:46.000Z,272.02
2023-02-14T00:51:50.000Z,271.96
2023-02-14T00:53:14.000Z,271.96
2023-02-14T00:55:17.000Z,271.96
2023-02-14T00:56:42.000Z,271.96
2023-02-14T00:58:45.000Z,271.9
2023-02-14T01:00:10.000Z,272.02
2023-02-14T01:02:13.000Z,272.02
2023-02-14T01:05:03.000Z,271.96
2023-02-14T01:06:27.000Z,271.96
2023-02-14T01:08:30.000Z,271.9
2023-02-14T01:09:55.000Z,271.9
2023-02-14T01:11:58.000Z,271.84
2023-02-14T01:13:23.000Z,271.9
2023-02-14T01:15:26.000Z,271.9
2023-02-14T01:16:51.000Z,271.96
2023-02-14T01:18:54.000Z,271.9
2023-02-14T01:20:19.000Z,271.9
2023-02-14T01:22:22.000Z,271.84
2023-02-14T01:23:46.000Z,271.84
2023-02-14T01:25:50.000Z,271.84
2023-02-14T01:27:15.000Z,271.84
2023-02-14T01:29:18.000Z,271.84
2023-02-14T01:30:42.000Z,271.84
2023-02-14T01:32:46.000Z,271.77
2023-02-14T01:34:10.000Z,271.77
2023-02-14T01:36:14.000Z,271.65
2023-02-14T01:37:38.000Z,271.65
2023-02-14T01:39:42.000Z,271.65
2023-02-14T01:42:31.000Z,271.65
2023-02-14T01:43:56.000Z,271.71
2023-02-14T01:45:59.000Z,271.71
2023-02-14T01:47:24.000Z,271.65
2023-02-14T01:49:27.000Z,271.59
2023-02-14T01:50:52.000Z,271.65
2023-02-14T01:52:55.000Z,271.71
2023-02-14T01:54:20.000Z,271.65
2023-02-14T01:56:23.000Z,271.65
2023-02-14T01:57:47.000Z,271.65
2023-02-14T01:59:51.000Z,271.59
2023-02-14T02:01:16.000Z,271.52
2023-02-14T02:03:19.000Z,271.4
2023-02-14T02:04:44.000Z,271.52
2023-02-14T02:06:47.000Z,271.52
2023-02-14T02:08:12.000Z,271.46
2023-02-14T02:10:15.000Z,271.46
2023-02-14T02:11:40.000Z,271.46
2023-02-14T02:13:43.000Z,271.46
2023-02-14T02:15:08.000Z,271.46
2023-02-14T02:17:11.000Z,271.46
2023-02-14T02:20:00.000Z,271.46
2023-02-14T02:21:25.000Z,271.46
2023-02-14T02:23:28.000Z,271.46
2023-02-14T02:24:53.000Z,271.46
2023-02-14T02:26:56.000Z,271.4
2023-02-14T02:28:21.000Z,271.46
2023-02-14T02:30:24.000Z,271.4
2023-02-14T02:31:49.000Z,271.46
2023-02-14T02:33:52.000Z,271.46
2023-02-14T02:35:17.000Z,271.34
2023-02-14T02:37:20.000Z,271.34
2023-02-14T02:38:45.000Z,271.34
2023-02-14T02:40:48.000Z,271.34
2023-02-14T02:42:12.000Z,271.34
2023-02-14T02:44:16.000Z,271.34
2023-02-14T02:45:40.000Z,271.34
2023-02-14T02:47:44.000Z,271.34
2023-02-14T02:49:08.000Z,271.34
2023-02-14T02:51:12.000Z,271.4
2023-02-14T02:52:36.000Z,271.34
2023-02-14T02:54:40.000Z,271.4
2023-02-14T02:57:29.000Z,271.52
2023-02-14T02:58:54.000Z,271.46
2023-02-14T03:00:57.000Z,271.46
2023-02-14T03:02:22.000Z,271.46
2023-02-14T03:04:26.000Z,271.46
2023-02-14T03:05:50.000Z,271.52
2023-02-14T03:07:54.000Z,271.46
2023-02-14T03:09:18.000Z,271.46
2023-02-14T03:11:21.000Z,271.46
2023-02-14T03:12:46.000Z,271.52
2023-02-14T03:14:49.000Z,271.59
2023-02-14T03:16:14.000Z,271.59
2023-02-14T03:18:17.000Z,271.59
2023-02-14T03:19:42.000Z,271.65
2023-02-14T03:21:45.000Z,271.59
2023-02-14T03:23:10.000Z,271.59
2023-02-14T03:25:13.000Z,271.59
2023-02-14T03:26:38.000Z,271.59
2023-02-14T03:28:41.000Z,271.59
2023-02-14T03:30:06.000Z,271.65
2023-02-14T03:32:09.000Z,271.65
2023-02-14T03:34:59.000Z,271.59
2023-02-14T03:36:23.000Z,271.59
2023-02-14T03:38:26.000Z,271.59
2023-02-14T03:39:51.000Z,271.59
2023-02-14T03:41:54.000Z,271.59
2023-02-14T03:43:19.000Z,271.65
2023-02-14T03:45:22.000Z,271.59
2023-02-14T03:46:47.000Z,271.59
2023-02-14T03:48:50.000Z,271.59
2023-02-14T03:50:14.000Z,271.59
2023-02-14T03:52:18.000Z,271.65
2023-02-14T03:53:42.000Z,271.71
2023-02-14T03:55:46.000Z,271.65
2023-02-14T03:57:10.000Z,271.65
2023-02-14T03:59:14.000Z,271.71
2023-02-14T04:00:38.000Z,271.77
2023-02-14T04:02:42.000Z,271.77
2023-02-14T04:04:06.000Z,271.71
2023-02-14T04:06:10.000Z,271.71
2023-02-14T04:07:34.000Z,271.77
2023-02-14T04:09:38.000Z,271.71
2023-02-14T04:12:27.000Z,271.65
2023-02-14T04:14:00.000Z,271.65
2023-02-14T04:16:03.000Z,271.59
2023-02-14T04:17:28.000Z,271.65
2023-02-14T04:19:31.000Z,271.65
2023-02-14T04:20:56.000Z,271.65
2023-02-14T04:23:00.000Z,271.65
2023-02-14T04:24:26.000Z,271.65
2023-02-14T04:26:29.000Z,271.59
2023-02-14T04:27:54.000Z,271.59
2023-02-14T04:29:57.000Z,271.65
2023-02-14T04:31:22.000Z,271.65
2023-02-14T04:33:25.000Z,271.59
2023-02-14T04:34:50.000Z,271.59
2023-02-14T04:36:53.000Z,271.59
2023-02-14T04:38:18.000Z,271.59
2023-02-14T04:40:21.000Z,271.59
2023-02-14T04:41:46.000Z,271.59
2023-02-14T04:43:49.000Z,271.46
2023-02-14T04:45:14.000Z,271.46
2023-02-14T04:47:17.000Z,271.46
2023-02-14T04:50:06.000Z,271.4
2023-02-14T04:51:31.000Z,271.46
2023-02-14T04:53:34.000Z,271.4
2023-02-14T04:54:59.000Z,271.4
2023-02-14T04:57:02.000Z,271.4
2023-02-14T04:58:27.000Z,271.4
2023-02-14T05:00:30.000Z,271.4
2023-02-14T05:01:55.000Z,271.46
2023-02-14T05:03:58.000Z,271.4
2023-02-14T05:05:23.000Z,271.4
2023-02-14T05:07:26.000Z,271.4
2023-02-14T05:08:51.000Z,271.4
2023-02-14T05:10:54.000Z,271.4
2023-02-14T05:12:19.000Z,271.46
2023-02-14T05:14:22.000Z,271.46
2023-02-14T05:15:47.000Z,271.4
2023-02-14T05:17:50.000Z,271.46
2023-02-14T05:19:15.000Z,271.46
2023-02-14T05:21:18.000Z,271.46
2023-02-14T05:22:42.000Z,271.52
2023-02-14T05:24:46.000Z,271.46
2023-02-14T05:27:35.000Z,271.46
2023-02-14T05:29:00.000Z,271.52
2023-02-14T05:31:03.000Z,271.52
2023-02-14T05:32:28.000Z,271.46
2023-02-14T05:34:31.000Z,271.52
2023-02-14T05:35:56.000Z,271.46
2023-02-14T05:37:59.000Z,271.4
2023-02-14T05:39:23.000Z,271.4
2023-02-14T05:41:27.000Z,271.4
2023-02-14T05:42:51.000Z,271.34
2023-02-14T05:44:55.000Z,271.27
2023-02-14T05:46:19.000Z,271.4
2023-02-14T05:48:23.000Z,271.4
2023-02-14T05:49:47.000Z,271.4
2023-02-14T05:51:51.000Z,271.34
2023-02-14T05:53:15.000Z,271.4
2023-02-14T05:55:19.000Z,271.52
2023-02-14T05:56:43.000Z,271.46
2023-02-14T05:58:47.000Z,271.4
2023-02-14T06:00:11.000Z,271.4
2023-02-14T06:02:15.000Z,271.4
2023-02-14T06:05:04.000Z,271.34
2023-02-14T06:06:28.000Z,271.4
2023-02-14T06:08:32.000Z,271.46
2023-02-14T06:09:56.000Z,271.46
2023-02-14T06:12:00.000Z,271.4
2023-02-14T06:13:24.000Z,271.4
2023-02-14T06:15:27.000Z,271.4
2023-02-14T06:16:52.000Z,271.4
2023-02-14T06:18:55.000Z,271.34
2023-02-14T06:20:20.000Z,271.34
2023-02-14T06:22:23.000Z,271.4
2023-02-14T06:23:48.000Z,271.4
2023-02-14T06:25:51.000Z,271.4
2023-02-14T06:27:16.000Z,271.34
2023-02-14T06:29:19.000Z,271.4
2023-02-14T06:30:43.000Z,271.34
2023-02-14T06:32:47.000Z,271.34
2023-02-14T06:34:12.000Z,271.4
2023-02-14T06:36:17.000Z,271.4
2023-02-14T06:37:42.000Z,271.4
2023-02-14T06:39:45.000Z,271.4
2023-02-14T06:42:35.000Z,271.4
2023-02-14T06:43:59.000Z,271.34
2023-02-14T06:46:03.000Z,271.34
2023-02-14T06:47:27.000Z,271.4
2023-02-14T06:49:31.000Z,271.4
2023-02-14T06:50:55.000Z,271.4
2023-02-14T06:52:59.000Z,271.4
2023-02-14T06:54:24.000Z,271.4
2023-02-14T06:56:27.000Z,271.4
2023-02-14T06:57:52.000Z,271.4
2023-02-14T06:59:55.000Z,271.4
2023-02-14T07:01:19.000Z,271.4
2023-02-14T07:03:23.000Z,271.4
2023-02-14T07:04:48.000Z,271.34
2023-02-14T07:06:51.000Z,271.4
2023-02-14T07:08:16.000Z,271.46
2023-02-14T07:10:19.000Z,271.4
2023-02-14T07:11:43.000Z,271.46
2023-02-14T07:13:47.000Z,271.46
2023-02-14T07:15:12.000Z,271.46
2023-02-14T07:17:15.000Z,271.52
2023-02-14T07:21:37.000Z,271.52
2023-02-14T07:23:39.000Z,271.46
2023-02-14T07:25:03.000Z,271.52
2023-02-14T07:27:06.000Z,271.52
2023-02-14T07:28:31.000Z,271.52
2023-02-14T07:30:34.000Z,271.71
2023-02-14T07:31:59.000Z,271.65
2023-02-14T07:34:02.000Z,271.84
2023-02-14T07:35:27.000Z,271.84
2023-02-14T07:37:30.000Z,271.9
2023-02-14T07:38:55.000Z,271.9
2023-02-14T07:40:58.000Z,271.96
2023-02-14T07:42:23.000Z,272.09
2023-02-14T07:44:27.000Z,272.02
2023-02-14T07:45:51.000Z,272.09
2023-02-14T07:47:55.000Z,272.02
2023-02-14T07:49:19.000Z,271.9
2023-02-14T07:51:23.000Z,272.15
2023-02-14T07:52:47.000Z,272.21
2023-02-14T07:54:51.000Z,271.96
2023-02-14T07:56:15.000Z,271.96
2023-02-14T07:58:19.000Z,272.02
2023-02-14T08:01:08.000Z,272.15
2023-02-14T08:02:32.000Z,272.21
2023-02-14T08:04:36.000Z,272.21
2023-02-14T08:06:00.000Z,272.21
2023-02-14T08:08:04.000Z,272.15
2023-02-14T08:09:28.000Z,272.21
2023-02-14T08:11:32.000Z,272.34
2023-02-14T08:12:56.000Z,272.4
2023-02-14T08:15:00.000Z,272.4
2023-02-14T08:16:25.000Z,272.34
2023-02-14T08:18:28.000Z,272.21
2023-02-14T08:19:53.000Z,272.4
2023-02-14T08:21:56.000Z,272.46
2023-02-14T08:23:21.000Z,272.46
2023-02-14T08:25:24.000Z,272.46
2023-02-14T08:26:49.000Z,272.52
2023-02-14T08:28:52.000Z,272.52
2023-02-14T08:30:17.000Z,272.59
2023-02-14T08:32:20.000Z,272.65
2023-02-14T08:33:45.000Z,272.65
2023-02-14T08:35:49.000Z,272.65
2023-02-14T08:38:38.000Z,272.77
2023-02-14T08:40:02.000Z,272.77
2023-02-14T08:42:06.000Z,272.71
2023-02-14T08:43:30.000Z,272.65
2023-02-14T08:45:36.000Z,272.71
2023-02-14T08:47:00.000Z,272.77
2023-02-14T08:49:04.000Z,272.77
2023-02-14T08:50:28.000Z,272.77
2023-02-14T08:52:32.000Z,272.84
2023-02-14T08:53:56.000Z,272.84
2023-02-14T08:56:00.000Z,272.9
2023-02-14T08:57:24.000Z,272.96
2023-02-14T08:59:28.000Z,272.96
2023-02-14T09:00:52.000Z,273.02
2023-02-14T09:02:56.000Z,273.02
2023-02-14T09:04:21.000Z,273.09
2023-02-14T09:06:25.000Z,273.09
2023-02-14T09:07:49.000Z,273.09
2023-02-14T09:09:53.000Z,273.09
2023-02-14T09:11:17.000Z,273.15
2023-02-14T09:13:21.000Z,273.15
2023-02-14T09:16:10.000Z,273.15
2023-02-14T09:17:34.000Z,273.15
2023-02-14T09:19:38.000Z,273.21
2023-02-14T09:21:02.000Z,273.27
2023-02-14T09:23:06.000Z,273.27
2023-02-14T09:24:30.000Z,273.27
2023-02-14T09:26:34.000Z,273.34
2023-02-14T09:27:59.000Z,273.34
2023-02-14T09:30:02.000Z,273.4
2023-02-14T09:31:29.000Z,273.46
2023-02-14T09:33:35.000Z,273.4
2023-02-14T09:35:02.000Z,273.46
2023-02-14T09:37:08.000Z,273.46
2023-02-14T09:38:35.000Z,273.46
2023-02-14T09:40:41.000Z,273.46
2023-02-14T09:42:08.000Z,273.52
2023-02-14T09:44:14.000Z,273.52
2023-02-14T09:45:40.000Z,273.52
2023-02-14T09:47:46.000Z,273.59
2023-02-14T09:49:13.000Z,273.59
2023-02-14T09:51:19.000Z,273.59
2023-02-14T09:54:11.000Z,273.65
2023-02-14T09:55:37.000Z,273.65
2023-02-14T09:57:44.000Z,273.65
2023-02-14T09:59:10.000Z,273.71
2023-02-14T10:01:16.000Z,273.71
2023-02-14T10:02:43.000Z,273.71
2023-02-14T10:04:49.000Z,273.71
2023-02-14T10:06:16.000Z,273.77
2023-02-14T10:08:22.000Z,273.71
2023-02-14T10:09:48.000Z,273.77
2023-02-14T10:11:54.000Z,273.77
2023-02-14T10:13:21.000Z,273.84
2023-02-14T10:15:27.000Z,273.84
2023-02-14T10:16:53.000Z,273.84
2023-02-14T10:19:00.000Z,273.84
2023-02-14T10:20:26.000Z,273.9
2023-02-14T10:22:32.000Z,273.9
2023-02-14T10:23:59.000Z,273.9
2023-02-14T10:26:05.000Z,273.96
2023-02-14T10:27:31.000Z,273.96
2023-02-14T10:29:38.000Z,274.02
2023-02-14T10:32:29.000Z,274.02
2023-02-14T10:33:55.000Z,274.02
2023-02-14T10:36:02.000Z,274.02
2023-02-14T10:37:28.000Z,274.02
2023-02-14T10:39:34.000Z,274.02
2023-02-14T10:41:01.000Z,274.09
2023-02-14T10:43:07.000Z,274.09
2023-02-14T10:44:33.000Z,274.15
2023-02-14T10:46:39.000Z,274.15
2023-02-14T10:48:06.000Z,274.21
2023-02-14T10:50:12.000Z,274.21
2023-02-14T10:51:39.000Z,274.27
2023-02-14T10:53:45.000Z,274.34
2023-02-14T10:55:11.000Z,274.4
2023-02-14T10:57:34.000Z,274.34
2023-02-14T10:59:00.000Z,274.4
2023-02-14T11:01:06.000Z,274.46
2023-02-14T11:02:33.000Z,274.46
2023-02-14T11:04:39.000Z,274.52
2023-02-14T11:06:06.000Z,274.65
2023-02-14T11:08:12.000Z,274.65
2023-02-14T11:11:03.000Z,274.71
2023-02-14T11:12:30.000Z,274.71
2023-02-14T11:14:36.000Z,274.77
2023-02-14T11:16:02.000Z,274.84
2023-02-14T11:18:09.000Z,274.9
2023-02-14T11:19:35.000Z,274.96
2023-02-14T11:21:41.000Z,275.02
2023-02-14T11:23:08.000Z,275.02
2023-02-14T11:25:14.000Z,275.02
2023-02-14T11:26:40.000Z,275.09
2023-02-14T11:28:47.000Z,275.09
2023-02-14T11:30:13.000Z,275.15
2023-02-14T11:32:19.000Z,275.21
2023-02-14T11:33:46.000Z,275.21
2023-02-14T11:35:52.000Z,275.27
2023-02-14T11:37:18.000Z,275.34
2023-02-14T11:39:24.000Z,275.4
2023-02-14T11:40:51.000Z,275.46
2023-02-14T11:42:57.000Z,275.52
2023-02-14T11:44:38.000Z,275.46
2023-02-14T11:46:45.000Z,275.52
2023-02-14T11:49:42.000Z,275.52
2023-02-14T11:51:09.000Z,275.52
2023-02-14T11:53:15.000Z,275.59
2023-02-14T11:54:41.000Z,275.65
2023-02-14T11:56:48.000Z,275.71
2023-02-14T11:58:14.000Z,275.77
2023-02-14T12:00:20.000Z,275.9
2023-02-14T12:01:47.000Z,275.9
2023-02-14T12:03:53.000Z,276.02
2023-02-14T12:05:20.000Z,276.02
2023-02-14T12:07:26.000Z,276.02
2023-02-14T12:08:52.000Z,276.15
2023-02-14T12:10:58.000Z,276.21
2023-02-14T12:12:25.000Z,276.27
2023-02-14T12:14:32.000Z,276.27
2023-02-14T12:15:58.000Z,276.4
2023-02-14T12:18:04.000Z,276.4
2023-02-14T12:19:31.000Z,276.46
2023-02-14T12:21:37.000Z,276.46
2023-02-14T12:23:03.000Z,276.46
2023-02-14T12:25:10.000Z,276.46
2023-02-14T12:28:01.000Z,276.52
2023-02-14T12:29:27.000Z,276.52
2023-02-14T12:31:33.000Z,276.65
2023-02-14T12:33:00.000Z,276.65
2023-02-14T12:35:06.000Z,276.71
2023-02-14T12:36:33.000Z,276.77
2023-02-14T12:38:39.000Z,276.77
2023-02-14T12:40:05.000Z,276.77
2023-02-14T12:42:11.000Z,276.84
2023-02-14T12:43:38.000Z,276.84
2023-02-14T12:45:44.000Z,276.9
2023-02-14T12:47:13.000Z,277.09
2023-02-14T12:49:19.000Z,277.09
2023-02-14T12:50:45.000Z,277.02
2023-02-14T12:52:51.000Z,277.02
2023-02-14T12:54:18.000Z,277.09
2023-02-14T12:56:24.000Z,277.15
2023-02-14T12:57:50.000Z,277.21
2023-02-14T12:59:57.000Z,277.27
2023-02-14T13:01:23.000Z,277.27
2023-02-14T13:03:36.000Z,277.4
2023-02-14T13:06:28.000Z,277.46
2023-02-14T13:07:54.000Z,277.4
2023-02-14T13:10:00.000Z,277.4
2023-02-14T13:11:27.000Z,277.4
2023-02-14T13:13:34.000Z,277.46
2023-02-14T13:15:00.000Z,277.34
2023-02-14T13:17:06.000Z,277.4
2023-02-14T13:18:33.000Z,277.34
2023-02-14T13:20:39.000Z,277.4
2023-02-14T13:22:05.000Z,277.4
2023-02-14T13:24:11.000Z,277.4
2023-02-14T13:25:38.000Z,277.4
2023-02-14T13:27:44.000Z,277.34
2023-02-14T13:29:11.000Z,277.34
2023-02-14T13:31:17.000Z,277.4
2023-02-14T13:32:44.000Z,277.4
2023-02-14T13:34:50.000Z,277.4
2023-02-14T13:36:16.000Z,277.4
2023-02-14T13:38:22.000Z,277.4
2023-02-14T13:39:49.000Z,277.4
2023-02-14T13:41:55.000Z,277.4
2023-02-14T13:44:46.000Z,277.4
2023-02-14T13:46:12.000Z,277.46
2023-02-14T13:48:19.000Z,277.52
2023-02-14T13:49:45.000Z,277.52
2023-02-14T13:51:51.000Z,277.52
2023-02-14T13:53:18.000Z,277.59
2023-02-14T13:55:24.000Z,277.65
2023-02-14T13:56:50.000Z,277.65
2023-02-14T13:58:57.000Z,277.65
2023-02-14T14:00:23.000Z,277.65
2023-02-14T14:02:29.000Z,277.71
2023-02-14T14:03:56.000Z,277.71
2023-02-14T14:06:02.000Z,277.71
2023-02-14T14:07:29.000Z,277.71
2023-02-14T14:09:35.000Z,277.71
2023-02-14T14:11:01.000Z,277.77
2023-02-14T14:13:07.000Z,277.71
2023-02-14T14:14:34.000Z,277.71
2023-02-14T14:16:40.000Z,277.77
2023-02-14T14:18:07.000Z,277.84
2023-02-14T14:20:13.000Z,277.84
2023-02-14T14:23:04.000Z,277.84
2023-02-14T14:24:30.000Z,277.9
2023-02-14T14:26:36.000Z,277.84
2023-02-14T14:28:03.000Z,277.84
2023-02-14T14:30:09.000Z,277.9
2023-02-14T14:31:36.000Z,277.9
2023-02-14T14:33:42.000Z,277.96
2023-02-14T14:35:08.000Z,278.02
2023-02-14T14:37:14.000Z,277.96
2023-02-14T14:38:41.000Z,278.02
2023-02-14T14:40:47.000Z,278.09
2023-02-14T14:42:13.000Z,278.15
2023-02-14T14:44:20.000Z,278.15
2023-02-14T14:45:46.000Z,278.21
2023-02-14T14:47:52.000Z,278.21
2023-02-14T14:49:19.000Z,278.21
2023-02-14T14:51:25.000Z,278.15
2023-02-14T14:52:52.000Z,278.15
2023-02-14T14:54:58.000Z,278.15
2023-02-14T14:56:24.000Z,278.21
2023-02-14T14:58:30.000Z,278.21
2023-02-14T15:01:21.000Z,278.21
2023-02-14T15:02:48.000Z,278.21
2023-02-14T15:04:54.000Z,278.21
2023-02-14T15:06:21.000Z,278.27
2023-02-14T15:08:27.000Z,278.27
2023-02-14T15:09:53.000Z,278.27
2023-02-14T15:11:59.000Z,278.27
2023-02-14T15:13:26.000Z,278.34
2023-02-14T15:15:32.000Z,278.34
2023-02-14T15:16:59.000Z,278.34
2023-02-14T15:19:05.000Z,278.34
2023-02-14T15:20:31.000Z,278.34
2023-02-14T15:22:38.000Z,278.34
2023-02-14T15:24:04.000Z,278.34
2023-02-14T15:26:10.000Z,278.34
2023-02-14T15:27:37.000Z,278.27
2023-02-14T15:29:43.000Z,278.34
2023-02-14T15:31:09.000Z,278.34
2023-02-14T15:33:16.000Z,278.34
2023-02-14T15:34:42.000Z,278.4
2023-02-14T15:36:48.000Z,278.34
2023-02-14T15:39:39.000Z,278.34
2023-02-14T15:41:06.000Z,278.34
2023-02-14T15:43:12.000Z,278.21
2023-02-14T15:44:38.000Z,278.21
2023-02-14T15:46:45.000Z,278.15
2023-02-14T15:48:11.000Z,278.15
2023-02-14T15:50:17.000Z,278.09
2023-02-14T15:51:44.000Z,278.02
2023-02-14T15:53:50.000Z,277.96
2023-02-14T15:55:16.000Z,277.9
2023-02-14T15:57:23.000Z,277.84
2023-02-14T15:58:49.000Z,277.77
2023-02-14T16:00:55.000Z,277.77
2023-02-14T16:02:22.000Z,277.71
2023-02-14T16:04:28.000Z,277.59
2023-02-14T16:05:55.000Z,277.59
2023-02-14T16:08:01.000Z,277.46
2023-02-14T16:09:27.000Z,277.4
2023-02-14T16:11:34.000Z,277.34
2023-02-14T16:13:00.000Z,277.21
2023-02-14T16:15:06.000Z,277.09
2023-02-14T16:17:58.000Z,276.77
2023-02-14T16:19:24.000Z,276.71
2023-02-14T16:21:30.000Z,276.65
2023-02-14T16:22:57.000Z,276.59
2023-02-14T16:25:03.000Z,276.4
2023-02-14T16:26:29.000Z,276.34
2023-02-14T16:28:35.000Z,276.21
2023-02-14T16:30:02.000Z,276.27
2023-02-14T16:32:08.000Z,276.21
2023-02-14T16:33:41.000Z,276.15
2023-02-14T16:35:47.000Z,276.09
2023-02-14T16:37:14.000Z,276.09
2023-02-14T16:39:20.000Z,276.02
2023-02-14T16:40:47.000Z,275.96
2023-02-14T16:42:53.000Z,275.84
2023-02-14T16:44:19.000Z,275.84
2023-02-14T16:46:25.000Z,275.84
2023-02-14T16:47:52.000Z,275.77
2023-02-14T16:49:58.000Z,275.71
2023-02-14T16:51:25.000Z,275.71
2023-02-14T16:53:31.000Z,275.59
2023-02-14T16:56:22.000Z,275.52
2023-02-14T16:57:48.000Z,275.59
2023-02-14T16:59:55.000Z,275.4
2023-02-14T17:01:21.000Z,275.4
2023-02-14T17:03:27.000Z,275.4
2023-02-14T17:04:54.000Z,275.27
2023-02-14T17:07:00.000Z,275.27
2023-02-14T17:08:27.000Z,275.21
2023-02-14T17:10:33.000Z,275.09
2023-02-14T17:11:59.000Z,275.02
2023-02-14T17:14:05.000Z,275.02
2023-02-14T17:15:32.000Z,275.02
2023-02-14T17:17:38.000Z,274.84
2023-02-14T17:19:04.000Z,274.9
2023-02-14T17:21:10.000Z,275.09
2023-02-14T17:22:37.000Z,275.09
2023-02-14T17:24:43.000Z,275.02
2023-02-14T17:26:10.000Z,275.02
2023-02-14T17:28:16.000Z,274.96
2023-02-14T17:29:42.000Z,274.9
2023-02-14T17:31:48.000Z,274.84
2023-02-14T17:34:39.000Z,274.9
2023-02-14T17:36:06.000Z,274.84
2023-02-14T17:38:15.000Z,274.77
2023-02-14T17:39:42.000Z,274.71
2023-02-14T17:41:48.000Z,274.71
2023-02-14T17:43:14.000Z,274.71
2023-02-14T17:45:20.000Z,274.65
2023-02-14T17:46:47.000Z,274.46
2023-02-14T17:48:53.000Z,274.34
2023-02-14T17:50:20.000Z,274.27
2023-02-14T17:52:26.000Z,273.96
2023-02-14T17:53:52.000Z,273.84
2023-02-14T17:55:58.000Z,273.71
2023-02-14T17:57:25.000Z,273.65
2023-02-14T17:59:31.000Z,273.65
2023-02-14T18:00:58.000Z,273.71
2023-02-14T18:03:04.000Z,273.59
2023-02-14T18:04:31.000Z,273.65
2023-02-14T18:06:37.000Z,273.52
2023-02-14T18:08:03.000Z,273.52
2023-02-14T18:10:10.000Z,273.59
2023-02-14T18:13:00.000Z,273.59
2023-02-14T18:14:25.000Z,273.59
2023-02-14T18:16:30.000Z,273.52
2023-02-14T18:17:56.000Z,273.46
2023-02-14T18:20:02.000Z,273.46
2023-02-14T18:21:26.000Z,273.46
2023-02-14T18:23:30.000Z,273.4
2023-02-14T18:24:54.000Z,273.4
2023-02-14T18:26:58.000Z,273.27
2023-02-14T18:28:22.000Z,273.27
2023-02-14T18:30:26.000Z,273.21
2023-02-14T18:31:51.000Z,273.21
2023-02-14T18:33:54.000Z,273.27
2023-02-14T18:35:19.000Z,273.4
2023-02-14T18:37:22.000Z,273.34
2023-02-14T18:38:47.000Z,273.27
2023-02-14T18:40:51.000Z,273.34
2023-02-14T18:42:15.000Z,273.21
2023-02-14T18:44:19.000Z,273.21
2023-02-14T18:45:43.000Z,273.15
2023-02-14T18:47:47.000Z,273.15
2023-02-14T18:50:36.000Z,273.34
2023-02-14T18:52:00.000Z,273.4
2023-02-14T18:54:04.000Z,273.27
2023-02-14T18:55:28.000Z,273.21
2023-02-14T18:57:32.000Z,273.21
2023-02-14T18:58:56.000Z,273.15
2023-02-14T19:00:59.000Z,272.96
2023-02-14T19:02:24.000Z,272.9
2023-02-14T19:04:28.000Z,272.84
2023-02-14T19:05:52.000Z,272.84
2023-02-14T19:07:56.000Z,272.77
2023-02-14T19:09:20.000Z,272.77
2023-02-14T19:11:24.000Z,272.77
2023-02-14T19:12:48.000Z,272.71
2023-02-14T19:14:52.000Z,272.77
2023-02-14T19:16:16.000Z,272.84
2023-02-14T19:18:20.000Z,272.84
2023-02-14T19:19:47.000Z,272.84
2023-02-14T19:21:51.000Z,272.84
2023-02-14T19:23:16.000Z,272.71
2023-02-14T19:25:19.000Z,272.84
2023-02-14T19:28:08.000Z,272.77
2023-02-14T19:29:33.000Z,272.84
2023-02-14T19:31:36.000Z,272.71
2023-02-14T19:33:01.000Z,272.71
2023-02-14T19:35:04.000Z,272.77
2023-02-14T19:36:29.000Z,272.9
2023-02-14T19:38:32.000Z,272.9
2023-02-14T19:39:57.000Z,272.96
2023-02-14T19:42:00.000Z,273.02
2023-02-14T19:43:24.000Z,273.02
2023-02-14T19:45:28.000Z,273.15
2023-02-14T19:46:52.000Z,273.15
2023-02-14T19:48:56.000Z,273.02
2023-02-14T19:50:20.000Z,273.09
2023-02-14T19:52:24.000Z,273.21
2023-02-14T19:53:49.000Z,273.15
2023-02-14T19:55:52.000Z,273.21
2023-02-14T19:57:17.000Z,273.21
2023-02-14T19:59:20.000Z,273.27
2023-02-14T20:00:45.000Z,273.27
2023-02-14T20:02:48.000Z,273.21
2023-02-14T20:07:10.000Z,273.27
2023-02-14T20:09:16.000Z,273.27
2023-02-14T20:11:10.000Z,273.27
2023-02-14T20:12:35.000Z,273.34
2023-02-14T20:14:39.000Z,273.27
2023-02-14T20:16:14.000Z,273.27
2023-02-14T20:18:17.000Z,273.34
2023-02-14T20:19:42.000Z,273.21
2023-02-14T20:21:45.000Z,273.4
2023-02-14T20:23:10.000Z,273.4
2023-02-14T20:25:13.000Z,273.46
2023-02-14T20:26:38.000Z,273.4
2023-02-14T20:28:41.000Z,273.34
2023-02-14T20:30:05.000Z,273.34
2023-02-14T20:32:09.000Z,273.27
2023-02-14T20:33:34.000Z,273.4
2023-02-14T20:35:37.000Z,273.34
2023-02-14T20:37:01.000Z,273.34
2023-02-14T20:39:05.000Z,273.34
2023-02-14T20:40:29.000Z,273.34
2023-02-14T20:42:33.000Z,273.4
2023-02-14T20:43:57.000Z,273.46
2023-02-14T20:46:01.000Z,273.46
2023-02-14T20:48:50.000Z,273.4
2023-02-14T20:50:15.000Z,273.4
2023-02-14T20:52:18.000Z,273.4
2023-02-14T20:53:43.000Z,273.46
2023-02-14T20:55:46.000Z,273.4
2023-02-14T20:57:11.000Z,273.4
2023-02-14T20:59:14.000Z,273.34
2023-02-14T21:00:39.000Z,273.34
2023-02-14T21:02:42.000Z,273.46
2023-02-14T21:04:07.000Z,273.4
2023-02-14T21:06:10.000Z,273.34
2023-02-14T21:07:35.000Z,273.27
2023-02-14T21:09:38.000Z,273.4
2023-02-14T21:11:03.000Z,273.34
2023-02-14T21:13:06.000Z,273.34
2023-02-14T21:14:31.000Z,273.27
2023-02-14T21:16:34.000Z,273.4
2023-02-14T21:17:59.000Z,273.34
2023-02-14T21:20:02.000Z,273.4
2023-02-14T21:21:26.000Z,273.46
2023-02-14T21:23:30.000Z,273.4
2023-02-14T21:26:19.000Z,273.4
2023-02-14T21:27:44.000Z,273.52
2023-02-14T21:29:47.000Z,273.46
2023-02-14T21:31:12.000Z,273.46
2023-02-14T21:33:16.000Z,273.27
2023-02-14T21:34:40.000Z,273.34
2023-02-14T21:36:44.000Z,273.34
2023-02-14T21:38:08.000Z,273.34
2023-02-14T21:40:12.000Z,273.4
2023-02-14T21:41:36.000Z,273.27
2023-02-14T21:43:40.000Z,273.27
2023-02-14T21:45:04.000Z,273.27
2023-02-14T21:47:08.000Z,273.21
2023-02-14T21:48:32.000Z,273.15
2023-02-14T21:50:36.000Z,273.09
2023-02-14T21:52:00.000Z,273.09
2023-02-14T21:54:03.000Z,273.02
2023-02-14T21:55:28.000Z,273.02
2023-02-14T21:57:31.000Z,273.02
2023-02-14T21:58:56.000Z,273.02
2023-02-14T22:00:59.000Z,272.96
2023-02-14T22:03:49.000Z,272.9
2023-02-14T22:05:14.000Z,272.9
2023-02-14T22:07:17.000Z,272.9
2023-02-14T22:08:41.000Z,272.9
2023-02-14T22:10:45.000Z,272.9
2023-02-14T22:12:10.000Z,272.96
2023-02-14T22:14:13.000Z,272.9
2023-02-14T22:15:38.000Z,272.96
2023-02-14T22:17:42.000Z,272.9
2023-02-14T22:19:07.000Z,272.9
2023-02-14T22:21:10.000Z,272.9
2023-02-14T22:22:34.000Z,272.9
2023-02-14T22:24:38.000Z,272.9
2023-02-14T22:26:02.000Z,272.96
2023-02-14T22:28:06.000Z,272.9
2023-02-14T22:29:30.000Z,272.9
2023-02-14T22:31:34.000Z,272.9
2023-02-14T22:32:59.000Z,272.9
2023-02-14T22:35:02.000Z,272.84
2023-02-14T22:36:27.000Z,272.84
2023-02-14T22:38:30.000Z,272.84
2023-02-14T22:42:52.000Z,272.65